Time;durP1;ratioP1;P1;durP2;ratioP2;P2;SDS_P1;SDS_P2;PMS_P1;PMS_P2;Temp;Humidity;BMP_temperature;BMP_pressure;BME280_temperature;BME280_humidity;BME280_pressure;Samples;Min_cycle;Max_cycle;Signal;HPM_P1;HPM_P2
2021/10/27 00:01:22;;;;;;;;;;;;;;;;;;5114807;28;19924;-70
2021/10/27 00:03:49;;;;;;;;;;;;;;;;;;5115382;28;19924;-70
2021/10/27 00:06:15;;;;;;;;;;;;;;;;;;5115284;28;20376;-70
2021/10/27 00:08:41;;;;;;;;;;;;;;;;;;5114529;28;19930;-70
2021/10/27 00:11:07;;;;;;;;;;;;;;;;;;5114988;28;20004;-70
2021/10/27 00:13:34;;;;;;;;;;;;;;;;;;5114802;28;19924;-70
2021/10/27 00:16:02;;;;;;;;;;;;;;;;;;5114914;28;19924;-70
2021/10/27 00:18:29;;;;;;;;;;;;;;;;;;5114777;28;19974;-70
2021/10/27 00:20:55;;;;;;;;;;;;;;;;;;5095139;28;19924;-69
2021/10/27 00:23:21;;;;;;;;;;;;;;;;;;5094399;28;19924;-70
2021/10/27 00:25:48;;;;;;;;;;;;;;;;;;5094074;28;20390;-70
2021/10/27 00:28:14;;;;;;;;;;;;;;;;;;5094143;28;19924;-70
2021/10/27 00:30:40;;;;;;;;;;;;;;;;;;5094090;28;19931;-70
2021/10/27 00:33:06;;;;;;;;;;;;;;;;;;5094002;28;20394;-70
2021/10/27 00:35:34;;;;;;;;;;;;;;;;;;5094210;28;19924;-71
2021/10/27 00:38:00;;;;;;;;;;;;;;;;;;5094174;28;19966;-70
2021/10/27 00:40:26;;;;;;;;;;;;;;;;;;5093690;28;20408;-71
2021/10/27 00:42:53;;;;;;;;;;;;;;;;;;5094186;28;19924;-71
2021/10/27 00:45:19;;;;;;;;;;;;;;;;;;5093896;28;19924;-71
2021/10/27 00:47:45;;;;;;;;;;;;;;;;;;5093792;28;19931;-71
2021/10/27 00:50:12;;;;;;;;;;;;;;;;;;5093949;28;19925;-71
2021/10/27 00:52:38;;;;;;;;;;;;;;;;;;5093872;28;20298;-71
2021/10/27 00:55:04;;;;;;;;;;;;;;;;;;5093735;28;19924;-71
2021/10/27 00:57:31;;;;;;;;;;;;;;;;;;5093856;28;19924;-71
2021/10/27 00:59:57;;;;;;;;;;;;;;;;;;5095906;28;20410;-71
2021/10/27 01:02:24;;;;;;;;;;;;;;;;;;5113739;28;19924;-71
2021/10/27 01:04:50;;;;;;;;;;;;;;;;;;5113806;28;20286;-71
2021/10/27 01:07:17;;;;;;;;;;;;;;;;;;5113784;28;19923;-71
2021/10/27 01:09:43;;;;;;;;;;;;;;;;;;5113955;28;19988;-71
2021/10/27 01:12:09;;;;;;;;;;;;;;;;;;5113808;28;20027;-71
2021/10/27 01:14:36;;;;;;;;;;;;;;;;;;5113394;28;19984;-71
2021/10/27 01:17:02;;;;;;;;;;;;;;;;;;5113430;28;19930;-71
2021/10/27 01:19:31;;;;;;;;;;;;;;;;;;5113810;28;19935;-71
2021/10/27 01:21:57;;;;;;;;;;;;;;;;;;5113507;28;19923;-71
2021/10/27 01:24:24;;;;;;;;;;;;;;;;;;5113517;28;19924;-71
2021/10/27 01:26:50;;;;;;;;;;;;;;;;;;5113432;28;19924;-71
2021/10/27 01:29:16;;;;;;;;;;;;;;;;;;5113230;28;19930;-71
2021/10/27 01:31:43;;;;;;;;;;;;;;;;;;5113301;28;19953;-71
2021/10/27 01:34:09;;;;;;;;;;;;;;;;;;5113616;28;19934;-71
2021/10/27 01:36:35;;;;;;;;;;;;;;;;;;5113008;28;20300;-71
2021/10/27 01:39:01;;;;;;;;;;;;;;;;;;5113170;28;19923;-71
2021/10/27 01:41:29;;;;;;;;;;;;;;;;;;5113127;28;19923;-71
2021/10/27 01:43:56;;;;;;;;;;;;;;;;;;5112996;28;19924;-71
2021/10/27 01:46:22;;;;;;;;;;;;;;;;;;5113235;28;19923;-71
2021/10/27 01:48:48;;;;;;;;;;;;;;;;;;5113121;28;19932;-71
2021/10/27 01:51:15;;;;;;;;;;;;;;;;;;5112918;28;20314;-71
2021/10/27 01:53:41;;;;;;;;;;;;;;;;;;5112803;28;19924;-71
2021/10/27 01:56:07;;;;;;;;;;;;;;;;;;5113396;28;19924;-71
2021/10/27 01:58:34;;;;;;;;;;;;;;;;;;5113038;28;20374;-71
2021/10/27 02:01:00;;;;;;;;;;;;;;;;;;5112863;28;19928;-71
2021/10/27 02:03:26;;;;;;;;;;;;;;;;;;5112999;28;19923;-71
2021/10/27 02:05:52;;;;;;;;;;;;;;;;;;5112843;28;19931;-71
2021/10/27 02:08:19;;;;;;;;;;;;;;;;;;5112982;28;19923;-71
2021/10/27 02:10:45;;;;;;;;;;;;;;;;;;5112624;28;19926;-71
2021/10/27 02:13:11;;;;;;;;;;;;;;;;;;5113124;28;19931;-71
2021/10/27 02:15:38;;;;;;;;;;;;;;;;;;5112741;28;20274;-71
2021/10/27 02:18:04;;;;;;;;;;;;;;;;;;5113102;28;19924;-71
2021/10/27 02:20:31;;;;;;;;;;;;;;;;;;5112850;28;19924;-71
2021/10/27 02:22:57;;;;;;;;;;;;;;;;;;5112614;28;19924;-71
2021/10/27 02:25:24;;;;;;;;;;;;;;;;;;5113047;28;19924;-71
2021/10/27 02:27:50;;;;;;;;;;;;;;;;;;5112681;28;19928;-71
2021/10/27 02:30:16;;;;;;;;;;;;;;;;;;5112968;28;19931;-71
2021/10/27 02:32:43;;;;;;;;;;;;;;;;;;5112570;28;19975;-71
2021/10/27 02:35:09;;;;;;;;;;;;;;;;;;5112731;28;19924;-71
2021/10/27 02:37:35;;;;;;;;;;;;;;;;;;5112314;28;20378;-71
2021/10/27 02:40:01;;;;;;;;;;;;;;;;;;5113052;28;19923;-71
2021/10/27 02:42:28;;;;;;;;;;;;;;;;;;5112863;28;19923;-71
2021/10/27 02:44:54;;;;;;;;;;;;;;;;;;5112719;28;19923;-71
2021/10/27 02:47:21;;;;;;;;;;;;;;;;;;5112482;28;19957;-71
2021/10/27 02:49:47;;;;;;;;;;;;;;;;;;5112516;28;20416;-71
2021/10/27 02:52:14;;;;;;;;;;;;;;;;;;5112438;28;19924;-71
2021/10/27 02:54:40;;;;;;;;;;;;;;;;;;5113238;28;19927;-71
2021/10/27 02:57:06;;;;;;;;;;;;;;;;;;5116500;28;20377;-71
2021/10/27 02:59:33;;;;;;;;;;;;;;;;;;5116016;28;19930;-71
2021/10/27 03:01:59;;;;;;;;;;;;;;;;;;5116405;28;19923;-71
2021/10/27 03:04:25;;;;;;;;;;;;;;;;;;5116030;28;20378;-71
2021/10/27 03:06:52;;;;;;;;;;;;;;;;;;5116337;28;19924;-71
2021/10/27 03:09:18;;;;;;;;;;;;;;;;;;5116324;28;19951;-71
2021/10/27 03:11:44;;;;;;;;;;;;;;;;;;5116102;28;19931;-71
2021/10/27 03:14:11;;;;;;;;;;;;;;;;;;5116314;28;19934;-71
2021/10/27 03:16:38;;;;;;;;;;;;;;;;;;5115682;28;19928;-71
2021/10/27 03:19:04;;;;;;;;;;;;;;;;;;5116265;28;19923;-71
2021/10/27 03:21:30;;;;;;;;;;;;;;;;;;5115873;28;19928;-71
2021/10/27 03:23:57;;;;;;;;;;;;;;;;;;5115925;28;19924;-71
2021/10/27 03:26:24;;;;;;;;;;;;;;;;;;5115770;28;19928;-71
2021/10/27 03:28:50;;;;;;;;;;;;;;;;;;5115800;28;19942;-71
2021/10/27 03:31:16;;;;;;;;;;;;;;;;;;5115392;28;19931;-71
2021/10/27 03:33:43;;;;;;;;;;;;;;;;;;5115926;28;19923;-71
2021/10/27 03:36:09;;;;;;;;;;;;;;;;;;5115767;28;20023;-71
2021/10/27 03:38:35;;;;;;;;;;;;;;;;;;5115279;28;19924;-71
2021/10/27 03:41:02;;;;;;;;;;;;;;;;;;5115869;28;19931;-71
2021/10/27 03:43:28;;;;;;;;;;;;;;;;;;5114985;28;19953;-72
2021/10/27 03:45:54;;;;;;;;;;;;;;;;;;5115757;28;19923;-71
2021/10/27 03:48:20;;;;;;;;;;;;;;;;;;5114976;28;20286;-70
2021/10/27 03:50:47;;;;;;;;;;;;;;;;;;5115318;28;19924;-71
2021/10/27 03:53:13;;;;;;;;;;;;;;;;;;5115433;28;19924;-71
2021/10/27 03:55:39;;;;;;;;;;;;;;;;;;5115238;28;19924;-71
2021/10/27 03:58:06;;;;;;;;;;;;;;;;;;5114998;28;19924;-70
2021/10/27 04:00:32;;;;;;;;;;;;;;;;;;5114830;28;19924;-71
2021/10/27 04:02:58;;;;;;;;;;;;;;;;;;5115008;28;20290;-71
2021/10/27 04:05:25;;;;;;;;;;;;;;;;;;5114270;28;19924;-70
2021/10/27 04:07:51;;;;;;;;;;;;;;;;;;5114796;28;19967;-70
2021/10/27 04:10:18;;;;;;;;;;;;;;;;;;5114953;28;19931;-70
2021/10/27 04:12:44;;;;;;;;;;;;;;;;;;5115087;28;19924;-70
2021/10/27 04:15:10;;;;;;;;;;;;;;;;;;5115101;28;19945;-70
2021/10/27 04:17:37;;;;;;;;;;;;;;;;;;5114533;28;19924;-70
2021/10/27 04:20:04;;;;;;;;;;;;;;;;;;5114656;28;20583;-70
2021/10/27 04:22:30;;;;;;;;;;;;;;;;;;5114300;28;19928;-70
2021/10/27 04:24:57;;;;;;;;;;;;;;;;;;5114581;28;19924;-70
2021/10/27 04:27:23;;;;;;;;;;;;;;;;;;5114685;28;19924;-70
2021/10/27 04:29:50;;;;;;;;;;;;;;;;;;5114774;28;19930;-70
2021/10/27 04:32:16;;;;;;;;;;;;;;;;;;5114326;28;19931;-70
2021/10/27 04:34:42;;;;;;;;;;;;;;;;;;5114213;28;19924;-70
2021/10/27 04:37:09;;;;;;;;;;;;;;;;;;5114616;28;19924;-70
2021/10/27 04:39:35;;;;;;;;;;;;;;;;;;5114092;28;19924;-70
2021/10/27 04:42:02;;;;;;;;;;;;;;;;;;5114546;28;19924;-70
2021/10/27 04:44:28;;;;;;;;;;;;;;;;;;5114295;28;19924;-70
2021/10/27 04:46:56;;;;;;;;;;;;;;;;;;5114183;28;19924;-71
2021/10/27 04:49:23;;;;;;;;;;;;;;;;;;5113919;28;19924;-70
2021/10/27 04:51:49;;;;;;;;;;;;;;;;;;5114165;28;19923;-70
2021/10/27 04:54:15;;;;;;;;;;;;;;;;;;5114025;28;20370;-70
2021/10/27 04:56:43;;;;;;;;;;;;;;;;;;5114055;28;19931;-71
2021/10/27 04:59:10;;;;;;;;;;;;;;;;;;5114134;28;20018;-71
2021/10/27 05:01:36;;;;;;;;;;;;;;;;;;5113622;28;19931;-70
2021/10/27 05:04:02;;;;;;;;;;;;;;;;;;5113892;28;19931;-70
2021/10/27 05:06:29;;;;;;;;;;;;;;;;;;5113786;28;19924;-70
2021/10/27 05:08:55;;;;;;;;;;;;;;;;;;5114163;28;20492;-70
2021/10/27 05:11:21;;;;;;;;;;;;;;;;;;5113556;28;19927;-70
2021/10/27 05:13:48;;;;;;;;;;;;;;;;;;5113944;28;19931;-70
2021/10/27 05:16:14;;;;;;;;;;;;;;;;;;5113700;28;20290;-71
2021/10/27 05:18:40;;;;;;;;;;;;;;;;;;5112674;28;19924;-71
2021/10/27 05:21:07;;;;;;;;;;;;;;;;;;5113812;28;19923;-71
2021/10/27 05:23:33;;;;;;;;;;;;;;;;;;5113307;28;20400;-70
2021/10/27 05:26:00;;;;;;;;;;;;;;;;;;5113484;28;19924;-71
2021/10/27 05:28:26;;;;;;;;;;;;;;;;;;5113009;28;19924;-70
2021/10/27 05:30:52;;;;;;;;;;;;;;;;;;5113925;28;19923;-71
2021/10/27 05:33:19;;;;;;;;;;;;;;;;;;5113092;28;20370;-70
2021/10/27 05:35:45;;;;;;;;;;;;;;;;;;5113452;28;19924;-70
2021/10/27 05:38:11;;;;;;;;;;;;;;;;;;5113477;28;19951;-70
2021/10/27 05:40:38;;;;;;;;;;;;;;;;;;5113032;28;19930;-70
2021/10/27 05:43:04;;;;;;;;;;;;;;;;;;5113352;28;19924;-70
2021/10/27 05:45:32;;;;;;;;;;;;;;;;;;5112952;28;20290;-70
2021/10/27 05:48:01;;;;;;;;;;;;;;;;;;5113432;28;20296;-64
2021/10/27 05:50:31;;;;;;;;;;;;;;;;;;5113096;28;19934;-67
2021/10/27 05:55:41;;;;;;;;;;;;;;;;;;5112883;28;20549;-66
2021/10/27 05:58:08;;;;;;;;;;;;;;;;;;5112911;28;19931;-66
2021/10/27 06:00:35;;;;;;;;;;;;;;;;;;5112575;28;20289;-65
2021/10/27 06:03:02;;;;;;;;;;;;;;;;;;5113307;28;19928;-66
2021/10/27 06:05:28;;;;;;;;;;;;;;;;;;5112935;28;19923;-66
2021/10/27 06:07:54;;;;;;;;;;;;;;;;;;5113076;28;19931;-66
2021/10/27 06:10:22;;;;;;;;;;;;;;;;;;5112500;28;19959;-66
2021/10/27 06:12:48;;;;;;;;;;;;;;;;;;5112994;28;19928;-65
2021/10/27 06:15:15;;;;;;;;;;;;;;;;;;5113312;28;19924;-66
2021/10/27 06:17:41;;;;;;;;;;;;;;;;;;5112624;28;20400;-66
2021/10/27 06:20:07;;;;;;;;;;;;;;;;;;5112971;28;19924;-66
2021/10/27 06:22:33;;;;;;;;;;;;;;;;;;5112450;28;20385;-66
2021/10/27 06:25:00;;;;;;;;;;;;;;;;;;5112851;28;19924;-66
2021/10/27 06:27:27;;;;;;;;;;;;;;;;;;5112681;28;19946;-66
2021/10/27 06:29:56;;;;;;;;;;;;;;;;;;5115506;28;19924;-66
2021/10/27 06:32:31;;;;;;;;;;;;;;;;;;5116540;28;20368;-66
2021/10/27 06:35:00;;;;;;;;;;;;;;;;;;5116957;28;19930;-66
2021/10/27 06:37:47;;;;;;;;;;;;;;;;;;5116418;28;19923;-66
2021/10/27 06:48:25;;;;;;;;;;;;;;;;;;5116193;28;19918;-66
2021/10/27 06:50:51;;;;;;;;;;;;;;;;;;5116740;28;19923;-66
2021/10/27 06:53:19;;;;;;;;;;;;;;;;;;5116044;28;19927;-66
2021/10/27 06:55:45;;;;;;;;;;;;;;;;;;5116197;28;19924;-66
2021/10/27 06:58:14;;;;;;;;;;;;;;;;;;5116583;28;19931;-66
2021/10/27 07:00:44;;;;;;;;;;;;;;;;;;5115778;28;20369;-65
2021/10/27 07:03:33;;;;;;;;;;;;;;;;;;5116324;28;20345;-65
2021/10/27 07:17:31;;;;;;;;;;;;;;;;;;5067177;28;19924;-66
2021/10/27 07:19:58;;;;;;;;;;;;;;;;;;5067199;28;19925;-67
2021/10/27 07:22:24;;;;;;;;;;;;;;;;;;5094600;28;20397;-66
2021/10/27 07:24:51;;;;;;;;;;;;;;;;;;5130712;28;19924;-66
2021/10/27 07:27:18;;;;;;;;;;;;;;;;;;5130769;28;20014;-65
2021/10/27 07:29:45;;;;;;;;;;;;;;;;;;5130737;28;19931;-66
2021/10/27 07:32:12;;;;;;;;;;;;;;;;;;5130350;28;19924;-66
2021/10/27 07:34:41;;;;;;;;;;;;;;;;;;5130330;28;20290;-65
2021/10/27 07:42:35;;;;;;;;;;;;;;;;;;5118952;28;19920;-66
2021/10/27 07:45:01;;;;;;;;;;;;;;;;;;5130246;28;19928;-66
2021/10/27 07:47:27;;;;;;;;;;;;;;;;;;5129728;28;19923;-65
2021/10/27 07:49:54;;;;;;;;;;;;;;;;;;5130360;28;19924;-65
2021/10/27 07:52:20;;;;;;;;;;;;;;;;;;5130107;28;20014;-65
2021/10/27 07:54:46;;;;;;;;;;;;;;;;;;5129825;28;19927;-65
2021/10/27 07:57:13;;;;;;;;;;;;;;;;;;5130140;28;19927;-66
2021/10/27 07:59:39;;;;;;;;;;;;;;;;;;5129398;28;19931;-65
2021/10/27 08:02:06;;;;;;;;;;;;;;;;;;5130077;28;19930;-66
2021/10/27 08:04:32;;;;;;;;;;;;;;;;;;5129404;28;20267;-66
2021/10/27 08:06:58;;;;;;;;;;;;;;;;;;5132936;27;19931;-66
2021/10/27 08:09:24;;;;;;;;;;;;;;;;;;5150451;27;19946;-66
2021/10/27 08:11:51;;;;;;;;;;;;;;;;;;5150323;27;19924;-66
2021/10/27 08:14:17;;;;;;;;;;;;;;;;;;5150391;27;19930;-65
2021/10/27 08:16:45;;;;;;;;;;;;;;;;;;5150440;27;19959;-65
2021/10/27 08:19:11;;;;;;;;;;;;;;;;;;5143516;27;19923;-65
2021/10/27 08:21:37;;;;;;;;;;;;;;;;;;5136352;27;19923;-66
2021/10/27 08:24:04;;;;;;;;;;;;;;;;;;5136241;27;20301;-66
2021/10/27 08:26:31;;;;;;;;;;;;;;;;;;5135908;27;19923;-66
2021/10/27 08:28:59;;;;;;;;;;;;;;;;;;5135972;27;20031;-66
2021/10/27 08:31:35;;;;;;;;;;;;;;;;;;5136211;27;19924;-65
2021/10/27 08:34:10;;;;;;;;;;;;;;;;;;5136137;27;19923;-66
2021/10/27 08:36:36;;;;;;;;;;;;;;;;;;5136077;27;19923;-65
2021/10/27 08:39:04;;;;;;;;;;;;;;;;;;5135874;27;19923;-65
2021/10/27 08:41:30;;;;;;;;;;;;;;;;;;5136011;27;19924;-66
2021/10/27 08:43:57;;;;;;;;;;;;;;;;;;5135782;27;19935;-65
2021/10/27 08:46:25;;;;;;;;;;;;;;;;;;5135590;27;19923;-65
2021/10/27 08:48:51;;;;;;;;;;;;;;;;;;5135745;27;19966;-65
2021/10/27 08:51:18;;;;;;;;;;;;;;;;;;5135824;27;19924;-65
2021/10/27 08:53:44;;;;;;;;;;;;;;;;;;5135671;27;19931;-66
2021/10/27 08:56:10;;;;;;;;;;;;;;;;;;5135886;27;19930;-66
2021/10/27 08:58:40;;;;;;;;;;;;;;;;;;5135344;27;19934;-65
2021/10/27 09:01:08;;;;;;;;;;;;;;;;;;5135431;27;19923;-66
2021/10/27 09:03:44;;;;;;;;;;;;;;;;;;5135550;27;19923;-66
2021/10/27 09:06:15;;;;;;;;;;;;;;;;;;5135344;27;20361;-66
2021/10/27 09:08:53;;;;;;;;;;;;;;;;;;5134883;27;20431;-65
2021/10/27 09:17:03;;;;;;;;;;;;;;;;;;5135716;27;19919;-65
2021/10/27 09:34:01;;;;;;;;;;;;;;;;;;5134868;27;19937;-66
2021/10/27 09:36:36;;;;;;;;;;;;;;;;;;5134601;27;19934;-67
2021/10/27 09:39:37;;;;;;;;;;;;;;;;;;5135111;27;19923;-67
2021/10/27 09:42:29;;;;;;;;;;;;;;;;;;5134611;27;19974;-67
2021/10/27 09:46:03;;;;;;;;;;;;;;;;;;5134571;27;19972;-66
2021/10/27 10:04:25;;;;;;;;;;;;;;;;;;5134222;27;19956;-67
2021/10/27 10:06:52;;;;;;;;;;;;;;;;;;5134330;27;19927;-65
2021/10/27 10:09:18;;;;;;;;;;;;;;;;;;5133807;27;19923;-66
2021/10/27 10:11:45;;;;;;;;;;;;;;;;;;5134191;27;20357;-67
2021/10/27 10:14:11;;;;;;;;;;;;;;;;;;5134125;27;19924;-68
2021/10/27 10:16:38;;;;;;;;;;;;;;;;;;5134160;27;20313;-68
2021/10/27 10:19:06;;;;;;;;;;;;;;;;;;5134279;27;19976;-67
2021/10/27 10:21:32;;;;;;;;;;;;;;;;;;5134079;27;19927;-66
2021/10/27 10:23:58;;;;;;;;;;;;;;;;;;5134116;27;19923;-66
2021/10/27 10:26:25;;;;;;;;;;;;;;;;;;5133651;27;19923;-67
2021/10/27 10:28:51;;;;;;;;;;;;;;;;;;5134048;27;19923;-67
2021/10/27 10:31:17;;;;;;;;;;;;;;;;;;5133832;27;20325;-66
2021/10/27 10:33:44;;;;;;;;;;;;;;;;;;5133778;27;19929;-66
2021/10/27 10:36:14;;;;;;;;;;;;;;;;;;5133767;27;19923;-68
2021/10/27 10:39:12;;;;;;;;;;;;;;;;;;5133699;27;20039;-67
2021/10/27 10:41:46;;;;;;;;;;;;;;;;;;5133108;27;20361;-67
2021/10/27 10:57:53;;;;;;;;;;;;;;;;;;5133376;27;20073;-66
2021/10/27 11:03:24;;;;;;;;;;;;;;;;;;5133228;27;19919;-67
2021/10/27 11:15:11;;;;;;;;;;;;;;;;;;5095971;28;19919;-65
2021/10/27 11:25:51;;;;;;;;;;;;;;;;;;5121798;28;19949;-67
2021/10/27 11:42:14;;;;;;;;;;;;;;;;;;5122107;28;19919;-67
2021/10/27 11:44:45;;;;;;;;;;;;;;;;;;5133081;28;19931;-66
2021/10/27 11:47:11;;;;;;;;;;;;;;;;;;5133007;28;19976;-66
2021/10/27 11:49:40;;;;;;;;;;;;;;;;;;5132886;28;20303;-66
2021/10/27 11:52:06;;;;;;;;;;;;;;;;;;5133231;28;19928;-67
2021/10/27 11:54:32;;;;;;;;;;;;;;;;;;5134085;27;19931;-67
2021/10/27 11:56:59;;;;;;;;;;;;;;;;;;5136717;27;19949;-67
2021/10/27 11:59:25;;;;;;;;;;;;;;;;;;5136877;27;19923;-67
2021/10/27 12:01:52;;;;;;;;;;;;;;;;;;5137009;27;20015;-67
2021/10/27 12:04:19;;;;;;;;;;;;;;;;;;5136375;27;19928;-67
2021/10/27 12:06:48;;;;;;;;;;;;;;;;;;5136600;27;20022;-67
2021/10/27 12:09:30;;;;;;;;;;;;;;;;;;5136593;27;20353;-67
2021/10/27 12:12:12;;;;;;;;;;;;;;;;;;5136520;27;20288;-67
2021/10/27 12:14:54;;;;;;;;;;;;;;;;;;5136662;27;19932;-68
2021/10/27 12:17:30;;;;;;;;;;;;;;;;;;5136440;27;19984;-66
2021/10/27 12:19:56;;;;;;;;;;;;;;;;;;5136962;27;20277;-69
2021/10/27 12:22:23;;;;;;;;;;;;;;;;;;5135995;27;19923;-68
2021/10/27 12:24:49;;;;;;;;;;;;;;;;;;5136268;27;20293;-68
2021/10/27 12:27:19;;;;;;;;;;;;;;;;;;5136266;27;19923;-67
2021/10/27 12:29:45;;;;;;;;;;;;;;;;;;5136361;27;20000;-67
2021/10/27 12:32:12;;;;;;;;;;;;;;;;;;5136159;27;19923;-68
2021/10/27 12:34:38;;;;;;;;;;;;;;;;;;5136085;27;20244;-68
2021/10/27 12:37:05;;;;;;;;;;;;;;;;;;5136406;27;20293;-68
2021/10/27 12:39:35;;;;;;;;;;;;;;;;;;5135672;27;20452;-67
2021/10/27 12:42:03;;;;;;;;;;;;;;;;;;5135998;27;19923;-68
2021/10/27 12:44:29;;;;;;;;;;;;;;;;;;5135594;27;20301;-68
2021/10/27 12:46:55;;;;;;;;;;;;;;;;;;5135792;27;19923;-68
2021/10/27 12:49:22;;;;;;;;;;;;;;;;;;5135710;27;19923;-68
2021/10/27 12:51:49;;;;;;;;;;;;;;;;;;5135672;27;19933;-68
2021/10/27 12:54:15;;;;;;;;;;;;;;;;;;5135657;27;20275;-68
2021/10/27 12:56:42;;;;;;;;;;;;;;;;;;5135598;27;19923;-68
2021/10/27 12:59:11;;;;;;;;;;;;;;;;;;5136204;27;19935;-68
2021/10/27 13:01:41;;;;;;;;;;;;;;;;;;5135515;27;20494;-66
2021/10/27 13:04:19;;;;;;;;;;;;;;;;;;5135398;27;19976;-67
2021/10/27 13:06:59;;;;;;;;;;;;;;;;;;5135422;27;19992;-66
2021/10/27 13:15:08;;;;;;;;;;;;;;;;;;5135561;27;19925;-67
2021/10/27 13:18:04;;;;;;;;;;;;;;;;;;5135349;27;20292;-67
2021/10/27 13:23:43;;;;;;;;;;;;;;;;;;5135298;27;19918;-67
2021/10/27 13:31:42;;;;;;;;;;;;;;;;;;5118258;27;19923;-67
2021/10/27 13:34:09;;;;;;;;;;;;;;;;;;5134906;27;20381;-67
2021/10/27 13:36:36;;;;;;;;;;;;;;;;;;5134848;27;19923;-67
2021/10/27 13:39:04;;;;;;;;;;;;;;;;;;5134716;27;20297;-67
2021/10/27 13:41:30;;;;;;;;;;;;;;;;;;5134736;27;19924;-67
2021/10/27 13:44:03;;;;;;;;;;;;;;;;;;5135047;27;19923;-68
2021/10/27 14:06:11;;;;;;;;;;;;;;;;;;5076003;27;19960;-68
2021/10/27 14:08:49;;;;;;;;;;;;;;;;;;5133603;27;20058;-68
2021/10/27 14:11:22;;;;;;;;;;;;;;;;;;5134591;27;19930;-68
2021/10/27 14:39:18;;;;;;;;;;;;;;;;;;5133652;27;19960;-67
2021/10/27 15:20:07;;;;;;;;;;;;;;;;;;5112817;28;20408;-66
2021/10/27 15:22:48;;;;;;;;;;;;;;;;;;5112512;28;19930;-66
2021/10/27 15:25:46;;;;;;;;;;;;;;;;;;5112812;28;19923;-66
2021/10/27 15:28:36;;;;;;;;;;;;;;;;;;5112881;28;20331;-67
2021/10/27 15:34:21;;;;;;;;;;;;;;;;;;5053840;28;19920;-67
2021/10/27 15:42:46;;;;;;;;;;;;;;;;;;5099529;27;20301;-66
2021/10/27 15:50:57;;;;;;;;;;;;;;;;;;5130560;28;19919;-66
2021/10/27 15:53:23;;;;;;;;;;;;;;;;;;5130573;28;19923;-66
2021/10/27 15:55:49;;;;;;;;;;;;;;;;;;5131053;28;19924;-66
2021/10/27 15:58:16;;;;;;;;;;;;;;;;;;5130613;28;20374;-67
2021/10/27 16:00:42;;;;;;;;;;;;;;;;;;5130370;28;19930;-67
2021/10/27 16:03:09;;;;;;;;;;;;;;;;;;5130626;28;19924;-66
2021/10/27 16:05:38;;;;;;;;;;;;;;;;;;5130483;28;19975;-66
2021/10/27 16:08:05;;;;;;;;;;;;;;;;;;5130252;28;19973;-67
2021/10/27 16:10:33;;;;;;;;;;;;;;;;;;5130362;28;19927;-68
2021/10/27 16:12:59;;;;;;;;;;;;;;;;;;5130405;28;20387;-68
2021/10/27 16:15:35;;;;;;;;;;;;;;;;;;5129800;28;19924;-67
2021/10/27 16:18:02;;;;;;;;;;;;;;;;;;5130545;28;19941;-68
2021/10/27 16:20:28;;;;;;;;;;;;;;;;;;5129942;28;20316;-68
2021/10/27 16:22:54;;;;;;;;;;;;;;;;;;5130481;28;19930;-67
2021/10/27 16:25:21;;;;;;;;;;;;;;;;;;5130141;28;20024;-68
2021/10/27 16:27:47;;;;;;;;;;;;;;;;;;5129839;28;20370;-67
2021/10/27 16:30:13;;;;;;;;;;;;;;;;;;5129828;28;19923;-67
2021/10/27 16:32:41;;;;;;;;;;;;;;;;;;5130055;28;19932;-68
2021/10/27 16:35:07;;;;;;;;;;;;;;;;;;5129853;28;20393;-67
2021/10/27 16:37:33;;;;;;;;;;;;;;;;;;5129451;28;19924;-67
2021/10/27 16:40:00;;;;;;;;;;;;;;;;;;5129635;28;19927;-69
2021/10/27 16:42:27;;;;;;;;;;;;;;;;;;5129523;28;19931;-68
2021/10/27 16:44:53;;;;;;;;;;;;;;;;;;5112396;28;20362;-68
2021/10/27 16:47:19;;;;;;;;;;;;;;;;;;5122689;28;19923;-69
2021/10/27 16:49:45;;;;;;;;;;;;;;;;;;5129953;28;19931;-69
2021/10/27 16:52:12;;;;;;;;;;;;;;;;;;5129590;28;20378;-67
2021/10/27 16:54:38;;;;;;;;;;;;;;;;;;5129552;28;19923;-68
2021/10/27 16:57:04;;;;;;;;;;;;;;;;;;5129634;28;20293;-67
2021/10/27 16:59:31;;;;;;;;;;;;;;;;;;5115481;28;19934;-68
2021/10/27 17:01:57;;;;;;;;;;;;;;;;;;5116051;28;19934;-68
2021/10/27 17:04:23;;;;;;;;;;;;;;;;;;5123316;27;19924;-68
2021/10/27 17:06:51;;;;;;;;;;;;;;;;;;5135936;27;19923;-68
2021/10/27 17:09:17;;;;;;;;;;;;;;;;;;5136112;27;19974;-68
2021/10/27 17:11:43;;;;;;;;;;;;;;;;;;5135484;27;19924;-68
2021/10/27 17:14:10;;;;;;;;;;;;;;;;;;5136397;27;19931;-67
2021/10/27 17:16:36;;;;;;;;;;;;;;;;;;5135728;27;20406;-68
2021/10/27 17:19:02;;;;;;;;;;;;;;;;;;5135900;27;19930;-68
2021/10/27 17:21:30;;;;;;;;;;;;;;;;;;5135828;27;19929;-67
2021/10/27 17:23:59;;;;;;;;;;;;;;;;;;5135849;27;20370;-68
2021/10/27 17:26:25;;;;;;;;;;;;;;;;;;5135474;27;19931;-67
2021/10/27 17:28:52;;;;;;;;;;;;;;;;;;5136104;27;19927;-67
2021/10/27 17:31:18;;;;;;;;;;;;;;;;;;5135565;27;19923;-72
2021/10/27 17:33:44;;;;;;;;;;;;;;;;;;5135700;27;19923;-70
2021/10/27 17:36:11;;;;;;;;;;;;;;;;;;5135617;27;19927;-72
2021/10/27 17:38:38;;;;;;;;;;;;;;;;;;5135231;27;19930;-69
2021/10/27 17:41:04;;;;;;;;;;;;;;;;;;5135539;27;20358;-68
2021/10/27 17:43:32;;;;;;;;;;;;;;;;;;5135130;27;19928;-68
2021/10/27 17:46:00;;;;;;;;;;;;;;;;;;5135331;27;19972;-68
2021/10/27 17:48:29;;;;;;;;;;;;;;;;;;5135337;27;19923;-68
2021/10/27 17:51:00;;;;;;;;;;;;;;;;;;5134785;27;19929;-68
2021/10/27 17:58:59;;;;;;;;;;;;;;;;;;5135408;27;19918;-67
2021/10/27 18:01:25;;;;;;;;;;;;;;;;;;5135234;27;20277;-68
2021/10/27 18:03:52;;;;;;;;;;;;;;;;;;5135108;27;19937;-68
2021/10/27 18:06:18;;;;;;;;;;;;;;;;;;5135032;27;19929;-68
2021/10/27 18:08:45;;;;;;;;;;;;;;;;;;5135037;27;20293;-68
2021/10/27 18:11:13;;;;;;;;;;;;;;;;;;5133962;27;19927;-68
2021/10/27 18:13:42;;;;;;;;;;;;;;;;;;5134857;27;20042;-68
2021/10/27 18:16:14;;;;;;;;;;;;;;;;;;5135107;27;19969;-71
2021/10/27 18:18:46;;;;;;;;;;;;;;;;;;5134644;27;20025;-68
2021/10/27 18:21:17;;;;;;;;;;;;;;;;;;5134893;27;20403;-68
2021/10/27 18:23:58;;;;;;;;;;;;;;;;;;5134581;27;19924;-69
2021/10/27 18:37:32;;;;;;;;;;;;;;;;;;5134351;27;19919;-67
2021/10/27 18:40:05;;;;;;;;;;;;;;;;;;5134750;27;19930;-68
2021/10/27 18:42:34;;;;;;;;;;;;;;;;;;5134479;27;20378;-67
2021/10/27 18:45:01;;;;;;;;;;;;;;;;;;5134258;27;20448;-67
2021/10/27 18:47:28;;;;;;;;;;;;;;;;;;5133876;27;19930;-68
2021/10/27 18:49:55;;;;;;;;;;;;;;;;;;5134327;27;19962;-67
2021/10/27 18:52:27;;;;;;;;;;;;;;;;;;5133935;27;19923;-67
2021/10/27 18:54:55;;;;;;;;;;;;;;;;;;5134463;27;19989;-67
2021/10/27 18:57:30;;;;;;;;;;;;;;;;;;5133659;27;19923;-67
2021/10/27 19:00:06;;;;;;;;;;;;;;;;;;5134364;27;19930;-68
2021/10/27 19:02:36;;;;;;;;;;;;;;;;;;5133885;27;19960;-68
2021/10/27 19:10:41;;;;;;;;;;;;;;;;;;5133530;27;19934;-67
2021/10/27 19:13:17;;;;;;;;;;;;;;;;;;5133636;27;19931;-68
2021/10/27 19:15:44;;;;;;;;;;;;;;;;;;5133601;27;19923;-68
2021/10/27 19:18:11;;;;;;;;;;;;;;;;;;5133634;27;20022;-67
2021/10/27 19:20:37;;;;;;;;;;;;;;;;;;5133496;27;19924;-67
2021/10/27 19:23:03;;;;;;;;;;;;;;;;;;5133832;27;19923;-67
2021/10/27 19:25:33;;;;;;;;;;;;;;;;;;5133071;27;19933;-68
2021/10/27 19:28:07;;;;;;;;;;;;;;;;;;5133717;27;19923;-67
2021/10/27 19:30:46;;;;;;;;;;;;;;;;;;5130381;27;19923;-67
2021/10/27 19:33:33;;;;;;;;;;;;;;;;;;5124285;27;19927;-67
2021/10/27 20:06:28;;;;;;;;;;;;;;;;;;5133240;28;19957;-66
2021/10/27 20:17:43;;;;;;;;;;;;;;;;;;5133203;28;19924;-66
2021/10/27 20:23:37;;;;;;;;;;;;;;;;;;5133110;28;19923;-68
2021/10/27 20:51:03;;;;;;;;;;;;;;;;;;5136547;27;19918;-67
2021/10/27 20:53:29;;;;;;;;;;;;;;;;;;5136300;27;19923;-66
2021/10/27 20:55:56;;;;;;;;;;;;;;;;;;5136496;27;20370;-67
2021/10/27 20:58:36;;;;;;;;;;;;;;;;;;5136411;27;19927;-67
2021/10/27 21:01:07;;;;;;;;;;;;;;;;;;5136550;27;20059;-67
2021/10/27 21:14:25;;;;;;;;;;;;;;;;;;5135986;27;20285;-66
2021/10/27 21:16:52;;;;;;;;;;;;;;;;;;5136089;27;19937;-66
2021/10/27 21:19:18;;;;;;;;;;;;;;;;;;5136321;27;19924;-66
2021/10/27 21:21:45;;;;;;;;;;;;;;;;;;5135525;27;20238;-66
2021/10/27 21:24:12;;;;;;;;;;;;;;;;;;5135644;27;19930;-66
2021/10/27 21:26:39;;;;;;;;;;;;;;;;;;5135912;27;19929;-66
2021/10/27 21:29:11;;;;;;;;;;;;;;;;;;5136108;27;19931;-66
2021/10/27 21:31:51;;;;;;;;;;;;;;;;;;5135707;27;19924;-65
2021/10/27 21:42:41;;;;;;;;;;;;;;;;;;5135269;27;19919;-66
2021/10/27 21:45:07;;;;;;;;;;;;;;;;;;5135977;27;19927;-66
2021/10/27 21:47:35;;;;;;;;;;;;;;;;;;5134934;27;20357;-66
2021/10/27 21:50:01;;;;;;;;;;;;;;;;;;5135720;27;19928;-66
2021/10/27 21:52:28;;;;;;;;;;;;;;;;;;5134996;27;20062;-65
2021/10/27 21:54:58;;;;;;;;;;;;;;;;;;5135498;27;19924;-65
2021/10/27 21:57:24;;;;;;;;;;;;;;;;;;5135341;27;19930;-66
2021/10/27 21:59:50;;;;;;;;;;;;;;;;;;5135505;27;19946;-66
2021/10/27 22:02:16;;;;;;;;;;;;;;;;;;5135121;27;20004;-66
2021/10/27 22:04:43;;;;;;;;;;;;;;;;;;5135080;27;19931;-66
2021/10/27 22:07:09;;;;;;;;;;;;;;;;;;5134894;27;20370;-66
2021/10/27 22:09:35;;;;;;;;;;;;;;;;;;5135054;27;19930;-66
2021/10/27 22:12:02;;;;;;;;;;;;;;;;;;5135278;27;20293;-66
2021/10/27 22:14:28;;;;;;;;;;;;;;;;;;5134687;27;19923;-66
2021/10/27 22:16:54;;;;;;;;;;;;;;;;;;5135032;27;19923;-66
2021/10/27 22:19:21;;;;;;;;;;;;;;;;;;5134635;27;20381;-65
2021/10/27 22:21:47;;;;;;;;;;;;;;;;;;5135054;27;19930;-65
2021/10/27 22:24:13;;;;;;;;;;;;;;;;;;5134712;27;20278;-65
2021/10/27 22:26:40;;;;;;;;;;;;;;;;;;5134439;27;19930;-65